createdAt,value
2023-04-28T00:00:16.489Z,6.93
2023-04-28T00:05:18.417Z,5.47
2023-04-28T00:10:20.104Z,8.95
2023-04-28T00:15:22.162Z,6.55
2023-04-28T00:20:23.908Z,4.43
2023-04-28T00:25:25.604Z,4.05
2023-04-28T00:30:27.476Z,9.85
2023-04-28T00:35:29.384Z,3.88
2023-04-28T00:40:34.677Z,8.85
2023-04-28T00:45:36.825Z,6.38
2023-04-28T00:50:38.923Z,4.88
2023-04-28T00:55:40.786Z,7.10
2023-04-28T01:00:42.387Z,4.75
2023-04-28T01:05:44.721Z,8.05
2023-04-28T01:10:46.441Z,4.72
2023-04-28T01:16:01.835Z,8.40
2023-04-28T01:21:04.550Z,8.82
2023-04-28T01:26:06.368Z,5.65
2023-04-28T01:31:08.510Z,10.32
2023-04-28T01:36:10.160Z,12.02
2023-04-28T01:41:12.106Z,14.50
2023-04-28T01:46:13.785Z,11.50
2023-04-28T01:51:15.503Z,12.85
2023-04-28T01:56:17.286Z,12.88
2023-04-28T02:01:19.255Z,12.98
2023-04-28T02:06:21.104Z,14.07
2023-04-28T02:11:22.845Z,13.07
2023-04-28T02:16:29.101Z,16.00
2023-04-28T02:21:31.885Z,15.57
2023-04-28T02:26:34.098Z,10.73
2023-04-28T02:31:36.126Z,12.57
2023-04-28T02:36:39.277Z,12.93
2023-04-28T02:41:42.239Z,18.33
2023-04-28T02:46:44.114Z,12.52
2023-04-28T02:51:46.193Z,14.27
2023-04-28T02:56:48.031Z,15.23
2023-04-28T03:01:51.746Z,14.75
2023-04-28T03:06:53.671Z,13.15
2023-04-28T03:11:55.574Z,16.30
2023-04-28T03:16:57.908Z,13.82
2023-04-28T03:21:59.843Z,13.40
2023-04-28T03:27:03.664Z,19.90
2023-04-28T03:32:06.171Z,16.85
2023-04-28T03:37:08.041Z,10.52
2023-04-28T03:42:09.698Z,20.35
2023-04-28T03:47:12.162Z,13.82
2023-04-28T03:52:14.109Z,16.58
2023-04-28T03:57:16.258Z,14.98
2023-04-28T04:02:17.961Z,17.48
2023-04-28T04:07:19.817Z,15.45
2023-04-28T04:12:21.484Z,18.30
2023-04-28T04:17:23.146Z,13.02
2023-04-28T04:22:25.037Z,16.50
2023-04-28T04:27:26.772Z,16.10
2023-04-28T04:32:29.185Z,13.95
2023-04-28T04:37:31.124Z,12.68
2023-04-28T04:42:36.248Z,18.92
2023-04-28T04:47:43.800Z,20.23
2023-04-28T04:52:46.396Z,14.25
2023-04-28T04:57:48.142Z,17.25
2023-04-28T05:03:06.491Z,13.38
2023-04-28T05:08:08.704Z,14.52
2023-04-28T05:13:10.729Z,11.90
2023-04-28T05:18:14.109Z,18.90
2023-04-28T05:23:15.945Z,19.42
2023-04-28T05:28:18.650Z,14.07
2023-04-28T05:33:24.073Z,13.77
2023-04-28T05:38:26.173Z,12.30
2023-04-28T05:43:29.604Z,25.52
2023-04-28T05:48:31.947Z,14.30
2023-04-28T05:53:35.075Z,16.80
2023-04-28T05:58:36.871Z,13.10
2023-04-28T06:03:43.022Z,20.00
2023-04-28T06:08:46.657Z,17.52
2023-04-28T06:13:52.355Z,13.40
2023-04-28T06:18:54.103Z,23.17
2023-04-28T06:23:56.055Z,13.43
2023-04-28T06:28:57.836Z,13.88
2023-04-28T06:33:59.506Z,11.65
2023-04-28T06:39:01.163Z,11.00
2023-04-28T06:44:04.084Z,10.60
2023-04-28T06:49:09.344Z,11.23
2023-04-28T06:54:11.664Z,15.02
2023-04-28T06:59:18.078Z,9.00
2023-04-28T07:04:20.002Z,8.48
2023-04-28T07:09:22.055Z,10.00
2023-04-28T07:14:23.688Z,14.40
2023-04-28T07:19:25.961Z,9.63
2023-04-28T07:24:28.351Z,8.48
2023-04-28T07:29:34.044Z,10.45
2023-04-28T07:34:35.948Z,7.90
2023-04-28T07:39:39.283Z,8.43
2023-04-28T07:44:40.948Z,9.23
2023-04-28T07:49:42.626Z,6.63
2023-04-28T07:54:44.371Z,8.63
2023-04-28T07:59:46.332Z,8.02
2023-04-28T08:04:48.026Z,6.80
2023-04-28T08:09:50.361Z,10.82
2023-04-28T08:14:53.177Z,15.40
2023-04-28T08:19:55.297Z,8.52
2023-04-28T08:24:57.269Z,7.90
2023-04-28T08:29:58.928Z,11.75
2023-04-28T08:35:00.846Z,13.07
2023-04-28T08:40:04.751Z,5.35
2023-04-28T08:45:06.958Z,6.13
2023-04-28T08:50:09.146Z,12.88
2023-04-28T08:55:12.917Z,4.22
2023-04-28T09:00:15.156Z,7.72
2023-04-28T09:05:17.159Z,5.68
2023-04-28T09:10:23.800Z,7.35
2023-04-28T09:15:33.285Z,8.90
2023-04-28T09:20:37.868Z,13.07
2023-04-28T09:25:40.007Z,9.00
2023-04-28T09:30:41.712Z,8.60
2023-04-28T09:35:45.390Z,6.95
2023-04-28T09:40:51.972Z,6.38
2023-04-28T09:45:55.001Z,5.68
2023-04-28T09:50:57.495Z,7.65
2023-04-28T09:56:01.510Z,4.82
2023-04-28T10:01:06.636Z,8.68
2023-04-28T10:06:08.534Z,9.13
2023-04-28T10:11:10.524Z,5.40
2023-04-28T10:16:13.169Z,5.35
2023-04-28T10:21:18.745Z,5.88
2023-04-28T10:26:22.101Z,3.70
2023-04-28T10:31:24.984Z,6.65
2023-04-28T10:36:53.146Z,4.97
2023-04-28T10:41:54.912Z,9.73
2023-04-28T10:47:09.245Z,8.02
2023-04-28T10:52:39.593Z,9.95
2023-04-28T10:57:41.672Z,5.43
2023-04-28T11:02:47.101Z,5.75
2023-04-28T11:08:30.604Z,6.65
2023-04-28T11:13:34.499Z,7.32
2023-04-28T11:18:52.847Z,10.88
2023-04-28T11:23:58.683Z,4.35
2023-04-28T11:29:00.386Z,4.85
2023-04-28T11:34:05.318Z,8.15
2023-04-28T11:39:08.760Z,3.90
2023-04-28T11:44:14.600Z,4.80
2023-04-28T11:49:18.307Z,4.00
2023-04-28T11:54:25.778Z,7.03
2023-04-28T11:59:29.427Z,9.35
2023-04-28T12:04:38.025Z,4.40
2023-04-28T12:09:41.150Z,5.55
2023-04-28T12:15:05.052Z,4.15
2023-04-28T12:20:11.799Z,6.30
2023-04-28T12:25:16.600Z,5.25
2023-04-28T12:30:21.193Z,5.70
2023-04-28T12:35:23.808Z,6.90
2023-04-28T12:40:26.158Z,5.18
2023-04-28T12:45:27.983Z,7.53
2023-04-28T12:50:33.022Z,11.07
2023-04-28T12:55:35.026Z,3.08
2023-04-28T13:00:36.875Z,2.88
2023-04-28T13:05:38.492Z,5.20
2023-04-28T13:10:40.807Z,6.15
2023-04-28T13:15:42.429Z,6.60
2023-04-28T13:20:44.228Z,6.68
2023-04-28T13:25:45.801Z,6.57
2023-04-28T13:30:47.358Z,6.70
2023-04-28T13:35:49.976Z,3.75
2023-04-28T13:40:52.553Z,7.53
2023-04-28T13:45:54.411Z,3.20
2023-04-28T13:50:56.096Z,5.53
2023-04-28T13:55:58.264Z,7.65
2023-04-28T14:01:00.262Z,6.05
2023-04-28T14:06:02.541Z,20.35
2023-04-28T14:11:04.329Z,8.30
2023-04-28T14:16:06.605Z,3.90
2023-04-28T14:21:08.675Z,6.65
2023-04-28T14:26:10.607Z,5.10
2023-04-28T14:31:12.553Z,6.60
2023-04-28T14:36:14.578Z,4.95
2023-04-28T14:41:16.443Z,6.45
2023-04-28T14:46:22.835Z,9.27
2023-04-28T14:51:26.041Z,7.80
2023-04-28T14:56:27.756Z,3.60
2023-04-28T15:01:30.522Z,6.65
2023-04-28T15:06:32.887Z,3.60
2023-04-28T15:11:34.482Z,10.55
2023-04-28T15:16:36.235Z,5.43
2023-04-28T15:21:38.133Z,4.55
2023-04-28T15:26:39.730Z,11.57
2023-04-28T15:31:41.718Z,5.35
2023-04-28T15:36:43.765Z,4.28
2023-04-28T15:41:45.416Z,4.30
2023-04-28T15:46:47.351Z,3.83
2023-04-28T15:51:48.944Z,4.50
2023-04-28T15:56:50.919Z,3.97
2023-04-28T16:01:52.528Z,3.13
2023-04-28T16:06:55.757Z,5.63
2023-04-28T16:11:59.518Z,4.93
2023-04-28T16:17:01.397Z,8.90
2023-04-28T16:22:03.028Z,4.75
2023-04-28T16:27:05.976Z,5.20
2023-04-28T16:32:07.743Z,5.03
2023-04-28T16:37:10.828Z,6.72
2023-04-28T16:42:12.621Z,9.55
2023-04-28T16:47:15.157Z,4.40
2023-04-28T16:52:16.997Z,6.45
2023-04-28T16:57:18.690Z,6.18
2023-04-28T17:02:20.462Z,8.50
2023-04-28T17:07:24.209Z,4.22
2023-04-28T17:12:27.279Z,6.30
2023-04-28T17:17:29.212Z,4.28
2023-04-28T17:22:31.456Z,7.97
2023-04-28T17:27:33.060Z,7.68
2023-04-28T17:32:36.591Z,7.47
2023-04-28T17:37:38.336Z,4.97
2023-04-28T17:42:40.093Z,9.07
2023-04-28T17:47:41.714Z,5.85
2023-04-28T17:52:44.162Z,8.55
2023-04-28T17:57:45.935Z,10.35
2023-04-28T18:02:47.659Z,10.82
2023-04-28T18:07:49.311Z,9.02
2023-04-28T18:12:53.012Z,12.10
2023-04-28T18:17:56.782Z,7.35
2023-04-28T18:22:58.598Z,9.00
2023-04-28T18:28:00.430Z,5.47
2023-04-28T18:33:02.058Z,6.70
2023-04-28T18:38:04.983Z,7.10
2023-04-28T18:43:08.690Z,8.10
2023-04-28T18:48:10.721Z,12.30
2023-04-28T18:53:13.142Z,7.50
2023-04-28T18:58:15.709Z,8.77
2023-04-28T19:03:17.509Z,7.47
2023-04-28T19:08:19.633Z,11.45
2023-04-28T19:13:21.469Z,9.27
2023-04-28T19:18:23.134Z,7.60
2023-04-28T19:23:24.733Z,6.75
2023-04-28T19:28:26.750Z,8.07
2023-04-28T19:33:28.636Z,7.93
2023-04-28T19:38:30.323Z,12.13
2023-04-28T19:43:32.354Z,9.23
2023-04-28T19:48:34.215Z,12.55
2023-04-28T19:53:38.957Z,11.82
2023-04-28T19:58:41.051Z,13.98
2023-04-28T20:03:43.118Z,12.10
2023-04-28T20:08:45.725Z,8.73
2023-04-28T20:13:48.326Z,8.98
2023-04-28T20:18:50.108Z,10.02
2023-04-28T20:23:51.761Z,10.32
2023-04-28T20:28:54.358Z,11.88
2023-04-28T20:33:56.099Z,13.65
2023-04-28T20:38:57.687Z,12.57
2023-04-28T20:43:59.302Z,8.88
2023-04-28T20:49:02.129Z,11.30
2023-04-28T20:54:04.432Z,10.13
2023-04-28T20:59:06.326Z,17.00
2023-04-28T21:04:08.823Z,13.13
2023-04-28T21:09:10.819Z,10.57
2023-04-28T21:14:15.621Z,13.95
2023-04-28T21:19:17.489Z,14.07
2023-04-28T21:24:19.143Z,11.65
2023-04-28T21:29:20.870Z,10.77
2023-04-28T21:34:22.471Z,10.82
2023-04-28T21:39:24.142Z,16.33
2023-04-28T21:44:25.912Z,11.73
2023-04-28T21:49:27.506Z,13.10
2023-04-28T21:54:29.091Z,12.88
2023-04-28T21:59:30.979Z,16.23
2023-04-28T22:04:33.804Z,10.93
2023-04-28T22:09:35.528Z,17.33
2023-04-28T22:14:40.979Z,10.52
2023-04-28T22:19:43.264Z,10.77
2023-04-28T22:24:44.946Z,11.88
2023-04-28T22:29:46.550Z,11.73
2023-04-28T22:34:49.123Z,11.93
2023-04-28T22:39:51.043Z,12.80
2023-04-28T22:44:53.123Z,10.10
2023-04-28T22:49:55.031Z,11.05
2023-04-28T22:54:56.705Z,12.48
2023-04-28T22:59:58.308Z,12.88
2023-04-28T23:05:00.107Z,11.23
2023-04-28T23:10:02.634Z,11.05
2023-04-28T23:15:04.682Z,11.60
2023-04-28T23:20:06.707Z,12.10
2023-04-28T23:25:08.775Z,14.23
2023-04-28T23:30:11.227Z,12.40
2023-04-28T23:35:13.976Z,13.70
2023-04-28T23:40:15.662Z,11.52
2023-04-28T23:45:17.361Z,11.57
2023-04-28T23:50:19.074Z,13.73
2023-04-28T23:55:20.732Z,14.00
